LGAV/ATH METAR and TAF weather

Enter ICAO airport designator
Station Type Date Time Source
LGAV METAR 2019/10/15 03:20 UTC NOAA

LGAV 150320Z VRB03KT CAVOK 11/10 Q1018 NOSIG


Station Type Date Time Source
LGAV Decoded METAR 2019/10/15 03:20 UTC NOAA

Athens Eleftherios Venizelos International Airport, Greece (LGAV) 37-56N 023-56E
Oct 14, 2019 - 11:20 PM EDT / 2019.10.15 0320 UTC
Wind: Variable at 3 MPH (3 KT):0
Visibility: greater than 7 mile(s):0
Temperature: 51 F (11 C)
Dew Point: 50 F (10 C)
Relative Humidity: 93%
Pressure (altimeter): 30.06 in. Hg (1018 hPa)
ob: LGAV 150320Z VRB03KT CAVOK 11/10 Q1018 NOSIG
cycle: 3

Station Type Date Time Source
LGAV TAF 2019/10/14 18:12 UTC NOAA

TAF TAF LGAV 141700Z 1418/1518 VRB05KT 9999 FEW020
TEMPO 1508/1518 04015KT

Example: see airport list